Time;durP1;ratioP1;P1;durP2;ratioP2;P2;SDS_P1;SDS_P2;PMS_P1;PMS_P2;Temp;Humidity;BMP_temperature;BMP_pressure;BME280_temperature;BME280_humidity;BME280_pressure;Samples;Min_cycle;Max_cycle;Signal;HPM_P1;HPM_P2
2022/12/12 00:00:22;;;;;;;59.85;28.77;;;;;;;-0.47;100.00;66729.03;4980384;28;20050;-86
2022/12/12 00:02:48;;;;;;;65.78;34.50;;;;;;;;;;4982588;28;20058;-86
2022/12/12 00:05:16;;;;;;;59.67;31.92;;;;;;;-0.48;100.00;66730.53;4972171;28;20053;-86
2022/12/12 00:07:42;;;;;;;61.58;30.33;;;;;;;-0.49;100.00;66720.97;4967418;28;20109;-86
2022/12/12 00:10:08;;;;;;;62.35;31.58;;;;;;;-0.52;100.00;66728.06;4979146;28;20677;-86
2022/12/12 00:12:33;;;;;;;66.00;34.05;;;;;;;-0.52;100.00;66722.84;4993424;28;20058;-86
2022/12/12 00:14:59;;;;;;;68.97;34.17;;;;;;;-0.51;100.00;66724.53;4983100;28;20073;-87
2022/12/12 00:17:25;;;;;;;70.72;33.58;;;;;;;-0.54;100.00;66723.78;4990924;28;20054;-85
2022/12/12 00:19:50;;;;;;;72.43;36.08;;;;;;;;;;4990557;28;20038;-86
2022/12/12 00:22:16;;;;;;;64.88;32.38;;;;;;;;;;4994255;28;20046;-86
2022/12/12 00:24:41;;;;;;;63.10;31.67;;;;;;;-0.58;100.00;66716.66;4995630;28;20049;-86
2022/12/12 00:27:06;;;;;;;72.28;35.53;;;;;;;;;;4982460;28;20058;-85
2022/12/12 00:29:32;;;;;;;72.90;33.78;;;;;;;-0.55;100.00;66720.03;4993722;28;20046;-86
2022/12/12 00:31:57;;;;;;;66.97;34.25;;;;;;;-0.55;100.00;66719.47;5005943;28;20485;-86
2022/12/12 00:34:23;;;;;;;74.43;35.55;;;;;;;-0.55;100.00;66719.47;4980263;28;21532;-87
2022/12/12 00:36:50;;;;;;;72.53;37.00;;;;;;;-0.54;100.00;66721.16;4982727;28;20556;-87
2022/12/12 00:39:16;;;;;;;70.00;35.08;;;;;;;-0.53;100.00;66716.50;4981820;28;20049;-87
2022/12/12 00:41:41;;;;;;;67.68;35.67;;;;;;;-0.54;100.00;66720.59;4990283;28;20045;-87
2022/12/12 00:44:07;;;;;;;73.20;35.65;;;;;;;-0.54;100.00;66721.16;4990652;28;20074;-87
2022/12/12 00:46:32;;;;;;;78.50;39.28;;;;;;;-0.58;100.00;66719.28;4991275;28;20043;-87
2022/12/12 00:48:58;;;;;;;77.07;39.47;;;;;;;-0.58;100.00;66716.09;4991043;28;20062;-87
2022/12/12 00:51:25;;;;;;;84.47;40.58;;;;;;;-0.60;100.00;66714.44;4989314;28;20121;-86
2022/12/12 00:53:51;;;;;;;78.15;40.53;;;;;;;;;;4982006;28;20065;-86
2022/12/12 00:56:19;;;;;;;78.40;38.88;;;;;;;-0.57;100.00;66720.41;4979233;28;20070;-86
2022/12/12 00:58:44;;;;;;;70.70;32.45;;;;;;;;;;4978288;28;20046;-86
2022/12/12 01:01:11;;;;;;;76.03;34.50;;;;;;;-0.57;100.00;66717.25;4984109;28;20046;-86
2022/12/12 01:03:37;;;;;;;80.45;35.60;;;;;;;;;;4974995;28;20132;-86
2022/12/12 01:06:03;;;;;;;77.70;38.67;;;;;;;-0.56;100.00;66721.53;4970409;28;20507;-86
2022/12/12 01:08:29;;;;;;;78.80;35.83;;;;;;;;;;4975874;28;20042;-86
2022/12/12 01:10:54;;;;;;;71.45;34.58;;;;;;;-0.58;100.00;66719.28;4991918;28;20081;-86
2022/12/12 01:13:20;;;;;;;80.63;37.78;;;;;;;;;;4980868;28;20050;-87
2022/12/12 01:15:45;;;;;;;78.90;40.63;;;;;;;-0.58;100.00;66718.72;4989682;28;20506;-87
2022/12/12 01:18:11;;;;;;;78.88;40.13;;;;;;;-0.61;100.00;66715.34;4990256;28;20069;-87
2022/12/12 01:20:36;;;;;;;79.05;40.70;;;;;;;;;;4984438;28;20053;-87
2022/12/12 01:23:01;;;;;;;79.53;40.15;;;;;;;-0.62;100.00;66706.94;4968166;28;20096;-87
2022/12/12 01:25:27;;;;;;;74.22;38.47;;;;;;;-0.60;100.00;66708.66;4970040;28;20097;-87
2022/12/12 01:27:52;;;;;;;74.07;38.15;;;;;;;;;;4972070;28;20407;-86
2022/12/12 01:30:20;;;;;;;80.85;37.85;;;;;;;-0.59;100.00;66715.00;4982991;28;20129;-86
2022/12/12 01:32:45;;;;;;;75.93;38.45;;;;;;;-0.60;100.00;66713.88;4988717;28;20399;-87
2022/12/12 01:35:11;;;;;;;72.15;36.45;;;;;;;;;;4989501;28;20046;-87
2022/12/12 01:37:38;;;;;;;76.80;36.22;;;;;;;-0.59;100.00;66715.00;4974862;28;20384;-86
2022/12/12 01:40:05;;;;;;;73.78;34.40;;;;;;;;;;4975911;28;20070;-87
2022/12/12 01:42:31;;;;;;;71.85;36.67;;;;;;;-0.59;100.00;66717.59;4992895;28;20050;-87
2022/12/12 01:44:56;;;;;;;69.57;34.80;;;;;;;-0.59;100.00;66718.16;4984432;28;20058;-87
2022/12/12 01:47:23;;;;;;;78.22;38.80;;;;;;;-0.60;100.00;66713.88;4977774;28;20038;-87
2022/12/12 01:49:50;;;;;;;70.85;37.20;;;;;;;;;;4976175;28;20038;-87
2022/12/12 01:52:21;;;;;;;72.68;38.65;;;;;;;;;;4984568;28;20131;-87
2022/12/12 01:54:52;;;;;;;74.03;35.75;;;;;;;-0.59;100.00;66715.53;4989676;28;20178;-87
2022/12/12 01:57:26;;;;;;;81.00;37.50;;;;;;;-0.59;100.00;66715.53;4967981;28;20526;-87
2022/12/12 01:59:52;;;;;;;76.53;37.30;;;;;;;-0.60;100.00;66716.47;4978838;28;20072;-87
2022/12/12 02:02:17;;;;;;;79.70;37.80;;;;;;;;;;4984358;28;20047;-87
2022/12/12 02:04:43;;;;;;;80.07;38.30;;;;;;;-0.58;100.00;66716.09;4984528;28;20126;-87
2022/12/12 02:07:09;;;;;;;84.22;40.13;;;;;;;-0.58;100.00;66716.66;4978262;28;20053;-86
2022/12/12 02:09:35;;;;;;;83.85;39.90;;;;;;;-0.58;100.00;66710.88;4985841;28;20076;-85
2022/12/12 02:12:01;;;;;;;90.00;39.45;;;;;;;-0.58;100.00;66716.66;4989307;28;20102;-86
2022/12/12 02:14:33;;;;;;;86.30;38.42;;;;;;;-0.59;100.00;66720.22;4993203;28;20121;-86
2022/12/12 02:17:10;;;;;;;79.80;38.30;;;;;;;-0.60;100.00;66714.44;4983088;28;20042;-86
2022/12/12 02:19:35;;;;;;;84.50;42.20;;;;;;;;;;4986492;28;20042;-86
2022/12/12 02:22:21;;;;;;;77.85;39.38;;;;;;;-0.58;100.00;66716.09;4983024;28;20047;-86
2022/12/12 02:25:02;;;;;;;75.90;36.33;;;;;;;-0.59;100.00;66715.00;4986107;28;20129;-86
2022/12/12 02:27:59;;;;;;;81.18;39.95;;;;;;;-0.64;100.00;66704.69;4990062;28;20042;-86
2022/12/12 02:31:00;;;;;;;77.22;38.67;;;;;;;-0.66;100.00;66707.69;4986912;28;20039;-86
2022/12/12 02:33:41;;;;;;;71.85;36.35;;;;;;;-0.69;100.00;66704.88;4977780;28;20572;-86
2022/12/12 02:36:13;;;;;;;80.30;36.33;;;;;;;;;;4978432;28;20118;-87
2022/12/12 02:39:04;;;;;;;72.45;34.35;;;;;;;;;;4970777;28;20532;-86
2022/12/12 02:42:05;;;;;;;75.13;37.88;;;;;;;-0.63;100.00;66711.06;4970133;28;20113;-86
2022/12/12 02:44:48;;;;;;;78.65;35.65;;;;;;;-0.63;100.00;66710.47;4986755;28;20042;-86
2022/12/12 02:47:28;;;;;;;81.13;36.83;;;;;;;-0.63;100.00;66716.28;4986220;28;20046;-87
2022/12/12 02:50:06;;;;;;;78.97;39.00;;;;;;;-0.61;100.00;66713.28;4988101;28;20042;-86
2022/12/12 02:52:33;;;;;;;78.17;38.70;;;;;;;-0.59;100.00;66715.00;4987348;28;20450;-86
2022/12/12 02:54:58;;;;;;;84.90;40.05;;;;;;;;;;4976859;28;20097;-86
2022/12/12 02:57:25;;;;;;;77.00;36.92;;;;;;;-0.61;100.00;66704.91;4983726;28;20062;-86
2022/12/12 02:59:55;;;;;;;78.28;39.00;;;;;;;-0.62;100.00;66711.63;4974037;28;20047;-86
2022/12/12 03:02:29;;;;;;;85.53;39.40;;;;;;;;;;4984731;28;20058;-86
2022/12/12 03:08:19;;;;;;;76.13;36.88;;;;;;;-0.61;100.00;66712.72;4999600;28;20616;-86
2022/12/12 03:10:53;;;;;;;78.88;37.53;;;;;;;;;;4950078;28;20051;-86
2022/12/12 03:13:39;;;;;;;80.05;38.08;;;;;;;-0.59;100.00;66715.00;5005944;28;20092;-87
2022/12/12 03:16:22;;;;;;;86.57;40.25;;;;;;;;;;4982362;28;20049;-86
2022/12/12 03:19:07;;;;;;;85.22;39.20;;;;;;;-0.58;100.00;66716.09;4994374;28;20137;-86
2022/12/12 03:21:45;;;;;;;83.22;42.17;;;;;;;-0.59;100.00;66710.31;4984544;28;20069;-86
2022/12/12 03:24:28;;;;;;;82.95;37.53;;;;;;;-0.61;100.00;66713.28;4981604;28;20050;-86
2022/12/12 03:27:05;;;;;;;75.57;32.83;;;;;;;;;;4986823;28;20042;-86
2022/12/12 03:29:34;;;;;;;78.10;37.92;;;;;;;;;;4982756;28;20042;-86
2022/12/12 03:32:05;;;;;;;89.53;40.65;;;;;;;-0.62;100.00;66712.19;4993205;28;20045;-86
2022/12/12 03:34:45;;;;;;;79.70;37.97;;;;;;;-0.63;100.00;66711.06;4985256;28;20042;-86
2022/12/12 03:37:27;;;;;;;82.97;38.83;;;;;;;-0.59;100.00;66715.00;4980808;28;20046;-86
2022/12/12 03:39:59;;;;;;;81.13;38.10;;;;;;;-0.58;100.00;66721.34;4981634;28;20184;-86
2022/12/12 03:42:53;;;;;;;76.07;37.70;;;;;;;-0.57;100.00;66717.78;4982091;28;20038;-86
2022/12/12 03:45:25;;;;;;;76.00;36.03;;;;;;;;;;4977929;28;20046;-86
2022/12/12 03:47:56;;;;;;;78.47;38.35;;;;;;;;;;4979128;28;20043;-87
2022/12/12 03:50:26;;;;;;;78.97;38.88;;;;;;;-0.59;100.00;66715.53;4980821;28;20038;-87
2022/12/12 03:53:06;;;;;;;77.20;37.35;;;;;;;;;;4981923;28;20046;-86
2022/12/12 03:55:31;;;;;;;76.07;37.10;;;;;;;;;;4974887;28;20042;-87
2022/12/12 03:58:07;;;;;;;82.40;40.13;;;;;;;-0.56;100.00;66718.91;4985332;28;20069;-87
2022/12/12 04:00:36;;;;;;;85.32;42.03;;;;;;;-0.54;100.00;66725.84;4985913;28;20051;-85
2022/12/12 04:03:16;;;;;;;85.88;44.97;;;;;;;-0.59;100.00;66715.00;4983977;28;20073;-86
2022/12/12 04:08:35;;;;;;;88.35;39.72;;;;;;;-0.60;100.00;66713.88;4998007;28;20081;-86
2022/12/12 04:14:17;;;;;;;86.10;41.63;;;;;;;-0.53;100.00;66721.72;4987621;28;20430;-86
2022/12/12 04:16:45;;;;;;;91.22;41.75;;;;;;;-0.54;100.00;66723.78;4986109;28;20493;-86
2022/12/12 04:23:13;;;;;;;98.63;44.90;;;;;;;;;;4978455;28;20133;-86
2022/12/12 04:25:01;;;;;;;88.47;41.33;;;;;;;-0.54;100.00;66721.16;4970531;28;20065;-86
2022/12/12 04:27:42;;;;;;;85.60;41.03;;;;;;;;;;4958607;28;20589;-86
2022/12/12 04:30:10;;;;;;;92.45;42.17;;;;;;;-0.53;100.00;66721.72;4985497;28;20185;-85
2022/12/12 04:32:47;;;;;;;84.28;42.13;;;;;;;-0.53;100.00;66722.28;4982381;28;20092;-85
2022/12/12 04:35:13;;;;;;;90.70;42.47;;;;;;;;;;4978424;28;20122;-85
2022/12/12 04:37:51;;;;;;;86.85;39.47;;;;;;;-0.52;100.00;66723.44;4973046;28;20182;-86
2022/12/12 04:40:28;;;;;;;94.38;42.65;;;;;;;-0.53;100.00;66722.28;4974630;28;20122;-86
2022/12/12 04:43:03;;;;;;;85.38;38.85;;;;;;;;;;4987768;28;20494;-86
2022/12/12 04:45:51;;;;;;;89.75;42.03;;;;;;;;;;4980645;28;20180;-86
2022/12/12 04:48:26;;;;;;;94.28;42.58;;;;;;;-0.54;100.00;66723.78;4985823;28;20613;-85
2022/12/12 04:50:52;;;;;;;91.53;40.03;;;;;;;-0.56;100.00;66721.53;4976254;28;20039;-86
2022/12/12 04:53:21;;;;;;;89.60;39.47;;;;;;;;;;4979001;28;20043;-86
2022/12/12 04:55:50;;;;;;;85.32;40.63;;;;;;;;;;4985740;28;20130;-86
2022/12/12 04:58:16;;;;;;;84.60;38.78;;;;;;;-0.55;100.00;66720.03;4982024;28;20076;-86
2022/12/12 05:01:08;;;;;;;88.05;38.80;;;;;;;-0.57;100.00;66717.25;4983411;28;20046;-86
2022/12/12 05:03:48;;;;;;;87.60;38.55;;;;;;;-0.60;100.00;66714.44;4992081;28;20046;-87
2022/12/12 05:06:17;;;;;;;88.60;42.88;;;;;;;-0.61;100.00;66712.72;4977012;28;20097;-86
2022/12/12 05:08:48;;;;;;;83.78;41.83;;;;;;;-0.60;100.00;66717.03;4986061;28;20043;-86
2022/12/12 05:11:17;;;;;;;86.60;40.13;;;;;;;-0.58;100.00;66718.72;4984297;28;20054;-87
2022/12/12 05:13:43;;;;;;;83.78;38.88;;;;;;;-0.61;100.00;66712.72;4984972;28;20401;-87
2022/12/12 05:16:17;;;;;;;87.65;38.05;;;;;;;;;;4982729;28;20042;-87
2022/12/12 05:18:43;;;;;;;85.95;40.10;;;;;;;;;;4990379;28;20042;-87
2022/12/12 05:21:08;;;;;;;84.32;38.65;;;;;;;-0.61;100.00;66712.72;4984715;28;20089;-87
2022/12/12 05:23:33;;;;;;;88.97;44.28;;;;;;;-0.61;100.00;66712.72;4975235;28;20080;-87
2022/12/12 05:25:59;;;;;;;89.93;43.92;;;;;;;-0.63;100.00;66710.47;4987577;28;20097;-85
2022/12/12 05:28:24;;;;;;;89.72;44.92;;;;;;;-0.63;100.00;66710.47;4979131;28;20054;-86
2022/12/12 05:30:49;;;;;;;82.70;39.75;;;;;;;-0.59;100.00;66715.00;4980611;28;20047;-87
2022/12/12 05:33:15;;;;;;;87.70;40.05;;;;;;;-0.61;100.00;66713.28;4991514;28;20046;-87
2022/12/12 05:35:40;;;;;;;85.00;38.83;;;;;;;-0.60;100.00;66713.88;4993275;28;20494;-86
2022/12/12 05:38:05;;;;;;;85.72;39.03;;;;;;;-0.61;100.00;66717.97;4991233;28;20034;-87
2022/12/12 05:40:31;;;;;;;83.00;38.90;;;;;;;-0.62;100.00;66711.63;4981329;28;20154;-90
2022/12/12 05:42:56;;;;;;;85.30;39.97;;;;;;;-0.62;100.00;66714.78;4986858;28;20045;-86
2022/12/12 05:45:22;;;;;;;89.82;40.50;;;;;;;-0.63;100.00;66710.47;4995746;28;20275;-88
2022/12/12 05:47:47;;;;;;;84.88;39.88;;;;;;;;;;5005132;28;20034;-88
2022/12/12 05:50:12;;;;;;;87.05;40.90;;;;;;;-0.63;100.00;66710.47;4991316;28;20045;-86
2022/12/12 05:52:38;;;;;;;88.28;40.42;;;;;;;-0.62;100.00;66714.22;4988597;28;20064;-87
2022/12/12 05:55:04;;;;;;;78.45;35.35;;;;;;;-0.63;100.00;66713.66;4986650;28;20038;-88
2022/12/12 05:57:29;;;;;;;88.03;40.15;;;;;;;-0.61;100.00;66713.28;4991258;28;20119;-86
2022/12/12 05:59:55;;;;;;;85.32;39.35;;;;;;;-0.61;100.00;66715.34;4979273;28;20104;-88
2022/12/12 06:02:20;;;;;;;88.40;43.25;;;;;;;-0.60;100.00;66714.44;4981794;28;20042;-86
2022/12/12 06:04:45;;;;;;;83.80;43.08;;;;;;;-0.60;100.00;66709.19;4976387;28;20566;-87
2022/12/12 06:07:11;;;;;;;85.28;40.53;;;;;;;-0.62;100.00;66712.19;4990904;28;20034;-87
2022/12/12 06:09:36;;;;;;;85.50;40.17;;;;;;;-0.60;100.00;66713.88;4990414;28;20041;-87
2022/12/12 06:12:02;;;;;;;88.25;41.70;;;;;;;-0.61;100.00;66712.72;4982693;28;20038;-86
2022/12/12 06:14:27;;;;;;;85.32;38.58;;;;;;;-0.59;100.00;66715.00;4985302;28;20047;-86
2022/12/12 06:16:53;;;;;;;91.13;42.70;;;;;;;-0.58;100.00;66710.88;4989329;28;20034;-87
2022/12/12 06:19:19;;;;;;;93.63;43.60;;;;;;;-0.57;100.00;66717.78;4988047;28;20034;-87
2022/12/12 06:21:44;;;;;;;92.88;44.13;;;;;;;;;;4993201;28;20053;-88
2022/12/12 06:24:10;;;;;;;94.03;43.40;;;;;;;-0.54;100.00;66725.84;4991220;28;20125;-87
2022/12/12 06:26:35;;;;;;;90.90;39.95;;;;;;;-0.59;100.00;66715.00;4985748;28;20053;-86
2022/12/12 06:29:00;;;;;;;89.65;45.60;;;;;;;;;;4975942;28;20076;-87
2022/12/12 06:31:26;;;;;;;90.90;40.92;;;;;;;-0.55;100.00;66719.47;4989519;28;20403;-87
2022/12/12 06:33:51;;;;;;;86.07;41.88;;;;;;;-0.55;100.00;66719.47;4989544;28;20398;-87
2022/12/12 06:36:25;;;;;;;89.75;41.47;;;;;;;-0.56;100.00;66718.34;4983501;28;20129;-86
2022/12/12 06:38:50;;;;;;;86.57;42.38;;;;;;;-0.55;100.00;66720.03;4994585;28;20035;-86
2022/12/12 06:41:16;;;;;;;92.22;42.83;;;;;;;-0.54;100.00;66720.59;5003893;28;20228;-88
2022/12/12 06:43:42;;;;;;;88.40;41.13;;;;;;;-0.55;100.00;66722.09;4992905;28;20050;-88
2022/12/12 06:46:12;;;;;;;88.43;40.50;;;;;;;-0.54;100.00;66721.16;4999079;28;20042;-87
2022/12/12 06:48:38;;;;;;;89.85;43.28;;;;;;;-0.54;100.00;66720.59;4994179;28;20070;-89
2022/12/12 06:51:07;;;;;;;91.97;41.60;;;;;;;;;;5001851;28;20042;-87
2022/12/12 06:53:32;;;;;;;87.15;42.30;;;;;;;-0.53;100.00;66722.28;4987426;28;20049;-88
2022/12/12 06:55:57;;;;;;;87.57;42.38;;;;;;;;;;4991915;28;20030;-87
2022/12/12 06:58:23;;;;;;;92.35;40.72;;;;;;;-0.56;100.00;66724.16;4989250;28;20055;-87
2022/12/12 07:00:52;;;;;;;96.60;45.35;;;;;;;-0.52;100.00;66723.44;4989131;28;20050;-86
2022/12/12 07:03:18;;;;;;;91.15;44.58;;;;;;;;;;4990154;28;20103;-87
2022/12/12 07:05:44;;;;;;;90.55;46.45;;;;;;;-0.54;100.00;66721.16;4998619;28;20034;-87
2022/12/12 07:08:10;;;;;;;94.85;47.58;;;;;;;-0.56;100.00;66720.97;4999406;28;20038;-87
2022/12/12 07:10:35;;;;;;;90.47;45.80;;;;;;;;;;4999850;28;20066;-87
2022/12/12 07:13:01;;;;;;;87.38;43.30;;;;;;;-0.54;100.00;66721.16;4998547;28;20446;-86
2022/12/12 07:15:26;;;;;;;86.70;39.05;;;;;;;-0.54;100.00;66721.16;4996797;28;20042;-87
2022/12/12 07:17:54;;;;;;;82.05;39.08;;;;;;;;;;4999558;28;20045;-87
2022/12/12 07:20:20;;;;;;;90.50;43.45;;;;;;;-0.54;100.00;66715.94;4993637;28;20038;-87
2022/12/12 07:22:45;;;;;;;89.63;43.20;;;;;;;;;;4995541;28;20050;-86
2022/12/12 07:25:11;;;;;;;89.05;44.67;;;;;;;-0.55;100.00;66720.03;4975518;28;20097;-87
2022/12/12 07:27:36;;;;;;;97.60;41.47;;;;;;;-0.55;100.00;66722.09;4975734;28;20072;-86
2022/12/12 07:30:03;;;;;;;80.93;39.28;;;;;;;-0.57;100.00;66722.47;4996754;28;20065;-86
2022/12/12 07:32:28;;;;;;;93.68;43.03;;;;;;;;;;4995028;28;20085;-87
2022/12/12 07:34:53;;;;;;;86.65;40.55;;;;;;;-0.56;100.00;66723.59;4996261;28;20070;-87
2022/12/12 07:37:19;;;;;;;89.47;43.63;;;;;;;-0.55;100.00;66714.25;4992389;28;20106;-87
2022/12/12 07:39:44;;;;;;;99.65;46.92;;;;;;;-0.58;100.00;66716.66;4987580;28;20046;-86
2022/12/12 07:42:09;;;;;;;97.50;45.22;;;;;;;;;;4982854;28;20047;-87
2022/12/12 07:44:35;;;;;;;104.72;44.90;;;;;;;;;;4994706;28;20054;-87
2022/12/12 07:47:00;;;;;;;105.25;45.20;;;;;;;-0.54;100.00;66723.22;4987532;28;20046;-88
2022/12/12 07:49:27;;;;;;;100.45;45.47;;;;;;;-0.52;100.00;66722.84;5002047;28;20054;-85
2022/12/12 07:51:52;;;;;;;90.95;43.67;;;;;;;;;;4997860;28;20042;-85
2022/12/12 07:54:18;;;;;;;101.78;47.70;;;;;;;;;;4997655;28;20548;-85
2022/12/12 07:56:43;;;;;;;100.47;47.75;;;;;;;-0.53;100.00;66714.44;4986293;28;20053;-85
2022/12/12 07:59:08;;;;;;;98.90;46.28;;;;;;;-0.54;100.00;66723.22;4991175;28;20453;-86
2022/12/12 08:01:34;;;;;;;95.93;45.80;;;;;;;-0.53;100.00;66727.50;4982687;28;20046;-87
2022/12/12 08:03:59;;;;;;;90.63;45.45;;;;;;;-0.52;100.00;66715.00;4985798;28;20030;-87
2022/12/12 08:06:25;;;;;;;98.60;44.28;;;;;;;-0.51;100.00;66727.16;4990572;28;20114;-87
2022/12/12 08:08:51;;;;;;;97.07;43.20;;;;;;;-0.52;100.00;66723.44;4971389;28;20026;-87
2022/12/12 08:11:18;;;;;;;98.28;43.95;;;;;;;;;;4983430;28;20100;-87
2022/12/12 08:13:43;;;;;;;110.43;48.03;;;;;;;-0.46;100.00;66732.78;4986451;28;20069;-87
2022/12/12 08:16:18;;;;;;;106.63;47.33;;;;;;;-0.45;100.00;66730.72;5007181;28;20417;-86
2022/12/12 08:18:44;;;;;;;104.15;47.30;;;;;;;;;;4971257;28;20406;-86
2022/12/12 08:21:11;;;;;;;106.78;48.70;;;;;;;-0.41;100.00;66739.88;4980382;28;20042;-87
2022/12/12 08:23:38;;;;;;;106.47;44.85;;;;;;;-0.37;100.00;66739.16;4994554;28;20046;-86
2022/12/12 08:26:07;;;;;;;98.78;41.85;;;;;;;-0.34;100.00;66743.09;4989871;28;20053;-86
2022/12/12 08:28:34;;;;;;;100.43;46.85;;;;;;;-0.36;100.00;66743.44;4993393;28;20490;-86
2022/12/12 08:30:59;;;;;;;95.05;45.90;;;;;;;-0.34;100.00;66742.53;4991110;28;20437;-86
2022/12/12 08:33:25;;;;;;;102.55;49.40;;;;;;;-0.33;100.00;66744.19;4989661;28;20066;-86
2022/12/12 08:35:50;;;;;;;96.30;47.58;;;;;;;-0.28;100.00;66749.81;4987566;28;20049;-87
2022/12/12 08:38:16;;;;;;;103.22;48.15;;;;;;;-0.25;100.00;66752.63;4992509;28;20085;-86
2022/12/12 08:40:41;;;;;;;97.20;45.42;;;;;;;;;;4990242;28;20101;-87
2022/12/12 08:43:08;;;;;;;104.97;48.05;;;;;;;-0.23;100.00;66757.50;4988300;28;20379;-86
2022/12/12 08:45:34;;;;;;;91.45;45.33;;;;;;;-0.24;100.00;66754.31;4986760;28;20073;-86
2022/12/12 08:47:59;;;;;;;102.10;47.95;;;;;;;-0.22;100.00;66755.44;4988869;28;20042;-86
2022/12/12 08:50:24;;;;;;;91.10;43.10;;;;;;;;;;4990585;28;20042;-87
2022/12/12 08:52:50;;;;;;;92.88;47.60;;;;;;;-0.23;100.00;66754.91;4987040;28;20494;-87
2022/12/12 08:55:15;;;;;;;84.25;37.97;;;;;;;;;;4995511;28;20039;-86
2022/12/12 08:57:40;;;;;;;81.65;39.65;;;;;;;-0.25;100.00;66753.19;4987112;28;20042;-87
2022/12/12 09:00:07;;;;;;;81.68;38.50;;;;;;;-0.24;100.00;66754.31;4981402;28;20422;-87
2022/12/12 09:02:32;;;;;;;85.53;44.75;;;;;;;-0.20;100.00;66757.69;4983506;28;20069;-86
2022/12/12 09:04:57;;;;;;;81.93;43.38;;;;;;;-0.22;100.00;66758.06;4973362;28;20133;-87
2022/12/12 09:07:23;;;;;;;85.75;40.40;;;;;;;-0.26;100.00;66751.50;4997423;28;20114;-87
2022/12/12 09:09:48;;;;;;;79.82;38.05;;;;;;;-0.27;100.00;66753.56;4995795;28;20497;-86
2022/12/12 09:12:14;;;;;;;85.40;44.05;;;;;;;-0.30;100.00;66747.56;4990223;28;20514;-87
2022/12/12 09:14:40;;;;;;;76.63;36.63;;;;;;;;;;4989687;28;20049;-87
2022/12/12 09:17:05;;;;;;;72.70;34.15;;;;;;;-0.32;100.00;66744.75;4982498;28;20138;-87
2022/12/12 09:19:30;;;;;;;81.05;37.55;;;;;;;-0.30;100.00;66747.00;4985308;28;20035;-86
2022/12/12 09:21:56;;;;;;;81.32;40.80;;;;;;;;;;4990233;28;20085;-86
2022/12/12 09:24:22;;;;;;;77.75;36.47;;;;;;;;;;4982548;28;20497;-87
2022/12/12 09:26:48;;;;;;;77.75;34.20;;;;;;;-0.32;100.00;66745.31;4986990;28;20038;-87
2022/12/12 09:29:13;;;;;;;82.90;38.67;;;;;;;-0.28;100.00;66749.28;4988927;28;20057;-87
2022/12/12 09:31:38;;;;;;;79.75;40.10;;;;;;;;;;4988653;28;20050;-88
2022/12/12 09:34:04;;;;;;;79.93;40.22;;;;;;;-0.23;100.00;66754.91;4981498;28;20047;-88
2022/12/12 09:36:29;;;;;;;83.97;42.92;;;;;;;-0.22;100.00;66755.44;4988519;28;20034;-88
2022/12/12 09:38:54;;;;;;;77.88;35.17;;;;;;;-0.23;100.00;66754.91;4975706;28;20489;-88
2022/12/12 09:41:25;;;;;;;76.30;39.45;;;;;;;-0.27;100.00;66750.94;4980642;28;20057;-88
2022/12/12 09:44:11;;;;;;;73.75;33.95;;;;;;;;;;4988001;28;20486;-88
2022/12/12 09:46:42;;;;;;;64.70;33.17;;;;;;;-0.35;100.00;66741.94;4994645;28;20129;-88
2022/12/12 09:49:15;;;;;;;74.95;39.00;;;;;;;-0.32;100.00;66744.75;4971664;28;20049;-88
2022/12/12 09:51:44;;;;;;;76.47;44.97;;;;;;;-0.34;100.00;66743.09;4988966;28;20597;-88
2022/12/12 09:54:14;;;;;;;74.72;36.10;;;;;;;;;;4985686;28;20069;-88
2022/12/12 09:56:56;;;;;;;84.95;43.67;;;;;;;-0.38;100.00;66743.81;4979278;28;20104;-87
2022/12/12 09:59:50;;;;;;;73.00;36.65;;;;;;;-0.35;100.00;66741.38;4972029;28;20135;-87
2022/12/12 10:02:24;;;;;;;74.78;37.55;;;;;;;;;;4987669;28;20060;-87
2022/12/12 10:05:00;;;;;;;80.63;38.75;;;;;;;-0.35;100.00;66741.94;4982845;28;20093;-88
2022/12/12 10:07:29;;;;;;;72.88;36.20;;;;;;;-0.39;100.00;66737.47;4970648;28;20047;-86
2022/12/12 10:10:16;;;;;;;;;;;;;;;-0.36;100.00;66735.59;4976785;28;20387;-87
2022/12/12 10:12:41;;;;;;;78.72;37.88;;;;;;;;;;4970539;28;20005;-87
2022/12/12 10:15:19;;;;;;;73.10;38.53;;;;;;;-0.28;100.00;66751.88;4979771;28;20129;-87
2022/12/12 10:17:46;;;;;;;77.88;38.80;;;;;;;-0.22;100.00;66760.69;4989780;28;20062;-87
2022/12/12 10:20:23;;;;;;;68.55;34.97;;;;;;;-0.20;100.00;66758.25;4984768;28;20062;-88
2022/12/12 10:22:54;;;;;;;73.95;43.20;;;;;;;-0.17;100.00;66761.63;5007120;28;20073;-87
2022/12/12 10:25:27;;;;;;;72.07;38.08;;;;;;;-0.10;100.00;66774.16;5001866;28;20469;-88
2022/12/12 10:27:58;;;;;;;73.93;38.85;;;;;;;-0.04;100.00;66775.69;4990541;28;20046;-88
2022/12/12 10:30:24;;;;;;;66.47;38.30;;;;;;;-0.01;100.00;66779.06;4983853;28;20166;-88
2022/12/12 10:33:08;;;;;;;64.95;37.60;;;;;;;0.07;100.00;66788.06;4984284;28;20149;-88
2022/12/12 10:35:50;;;;;;;71.10;38.50;;;;;;;;;;4999897;28;20039;-87
2022/12/12 10:38:20;;;;;;;66.43;36.55;;;;;;;0.08;100.00;66788.59;4979550;28;20119;-87
2022/12/12 10:40:57;;;;;;;67.53;33.92;;;;;;;0.11;100.00;66786.75;4980548;28;20050;-88
2022/12/12 10:43:28;;;;;;;69.60;36.05;;;;;;;;;;4975989;28;20497;-88
2022/12/12 10:46:07;;;;;;;67.80;35.08;;;;;;;0.15;100.00;66799.66;4984985;28;20050;-87
2022/12/12 10:48:32;;;;;;;69.65;36.05;;;;;;;;;;4985211;28;20078;-87
2022/12/12 10:51:02;;;;;;;65.75;39.55;;;;;;;0.22;100.00;66804.34;4986318;28;20494;-88
2022/12/12 10:53:29;;;;;;;65.13;35.38;;;;;;;;;;4983123;28;20038;-87
2022/12/12 10:55:57;;;;;;;64.32;37.28;;;;;;;0.24;100.00;66806.03;4987351;28;20046;-87
2022/12/12 10:58:27;;;;;;;55.72;29.80;;;;;;;;;;4978707;28;20054;-87
2022/12/12 11:01:01;;;;;;;53.40;27.13;;;;;;;0.17;100.00;66801.91;4976678;28;20054;-87
2022/12/12 11:03:39;;;;;;;56.00;30.70;;;;;;;0.25;100.00;66809.78;4982839;28;20065;-87
2022/12/12 11:06:06;;;;;;;51.75;27.95;;;;;;;;;;4992929;28;20060;-87
2022/12/12 11:08:34;;;;;;;52.38;28.65;;;;;;;0.39;100.00;66818.22;4988296;28;20054;-87
2022/12/12 11:10:59;;;;;;;51.80;28.27;;;;;;;0.43;100.00;66827.97;4984884;28;20042;-86
2022/12/12 11:13:25;;;;;;;47.65;24.38;;;;;;;0.41;100.00;66819.94;4987677;28;20057;-87
2022/12/12 11:16:00;;;;;;;45.33;26.27;;;;;;;;;;4986333;28;20077;-87
2022/12/12 11:18:27;;;;;;;44.03;25.33;;;;;;;0.49;100.00;66834.16;4988440;28;20481;-86
2022/12/12 11:20:55;;;;;;;44.95;25.63;;;;;;;0.47;100.00;66831.34;4970927;28;20046;-86
2022/12/12 11:23:27;;;;;;;42.20;24.75;;;;;;;0.52;100.00;66840.16;4986577;28;20057;-86
2022/12/12 11:25:54;;;;;;;44.70;26.02;;;;;;;;;;4986759;28;20622;-86
2022/12/12 11:28:23;;;;;;;41.22;23.20;;;;;;;0.55;100.00;66843.53;4986472;28;20481;-86
2022/12/12 11:30:51;;;;;;;40.47;20.17;;;;;;;0.59;100.00;66844.84;4988371;28;20043;-86
2022/12/12 11:33:30;;;;;;;37.55;21.67;;;;;;;;;;4978078;28;20043;-87
2022/12/12 11:35:56;;;;;;;36.33;19.10;;;;;;;0.67;100.00;66854.41;4975033;28;20042;-86
2022/12/12 11:38:29;;;;;;;34.60;16.52;;;;;;;0.58;100.00;66849.53;4979942;28;20046;-85
2022/12/12 11:41:03;;;;;;;33.92;20.27;;;;;;;0.72;100.00;66862.09;4978816;28;20732;-85
2022/12/12 11:43:30;;;;;;;34.45;16.75;;;;;;;;;;5002018;28;20134;-85
2022/12/12 11:46:13;;;;;;;40.08;22.52;;;;;;;0.84;100.00;66872.97;4988935;28;20034;-86
2022/12/12 11:48:42;;;;;;;38.22;23.70;;;;;;;0.96;100.00;66885.34;4999134;28;20059;-85
2022/12/12 11:51:08;;;;;;;31.80;21.02;;;;;;;0.94;100.00;66878.41;4979321;28;20129;-85
2022/12/12 11:53:39;;;;;;;36.55;21.80;;;;;;;1.01;100.00;66885.75;4983374;28;20049;-85
2022/12/12 11:56:42;;;;;;;32.50;18.73;;;;;;;1.19;100.00;66910.69;4982456;28;20413;-85
2022/12/12 11:59:24;;;;;;;34.80;19.67;;;;;;;1.17;100.00;66908.97;4982180;28;20038;-85
2022/12/12 12:01:55;;;;;;;34.75;20.33;;;;;;;;;;4990043;28;20061;-85
2022/12/12 12:04:36;;;;;;;32.80;19.40;;;;;;;;;;4983592;28;20070;-86
2022/12/12 12:07:10;;;;;;;36.28;19.95;;;;;;;;;;4986237;28;20046;-85
2022/12/12 12:09:48;;;;;;;34.85;19.90;;;;;;;1.33;100.00;66929.06;4980949;28;20529;-86
2022/12/12 12:12:19;;;;;;;34.00;19.80;;;;;;;;;;4974785;28;20062;-85
2022/12/12 12:14:57;;;;;;;28.45;17.15;;;;;;;1.38;100.00;66924.19;4993378;28;20049;-85